createdAt,value
2018-07-12T00:01:45.489Z,6.80
2018-07-12T00:04:11.967Z,6.83
2018-07-12T00:06:38.455Z,6.73
2018-07-12T00:09:04.926Z,7.87
2018-07-12T00:11:31.379Z,8.37
2018-07-12T00:13:57.876Z,8.57
2018-07-12T00:16:24.357Z,8.17
2018-07-12T00:18:50.816Z,8.63
2018-07-12T00:21:17.357Z,8.93
2018-07-12T00:23:43.817Z,8.47
2018-07-12T00:26:10.275Z,9.00
2018-07-12T00:28:36.781Z,9.10
2018-07-12T00:31:03.269Z,7.90
2018-07-12T00:33:29.715Z,8.17
2018-07-12T00:35:56.194Z,8.87
2018-07-12T00:38:22.646Z,8.47
2018-07-12T00:40:49.123Z,8.90
2018-07-12T00:43:15.640Z,10.30
2018-07-12T00:45:42.080Z,8.70
2018-07-12T00:48:09.000Z,9.77
2018-07-12T00:50:35.495Z,9.33
2018-07-12T00:53:01.991Z,9.00
2018-07-12T00:55:28.468Z,8.70
2018-07-12T00:57:54.963Z,8.37
2018-07-12T01:00:21.415Z,8.73
2018-07-12T01:02:47.900Z,8.60
2018-07-12T01:05:14.419Z,9.20
2018-07-12T01:07:40.877Z,8.40
2018-07-12T01:10:07.330Z,9.03
2018-07-12T01:12:34.534Z,9.33
2018-07-12T01:15:01.015Z,9.30
2018-07-12T01:17:28.473Z,8.20
2018-07-12T01:19:54.982Z,7.90
2018-07-12T01:22:22.070Z,9.87
2018-07-12T01:24:49.135Z,8.90
2018-07-12T01:27:17.858Z,9.23
2018-07-12T01:29:44.822Z,8.30
2018-07-12T01:32:13.456Z,8.50
2018-07-12T01:34:40.600Z,8.77
2018-07-12T01:37:07.102Z,9.10
2018-07-12T01:39:33.590Z,8.33
2018-07-12T01:42:01.033Z,9.10
2018-07-12T01:44:28.141Z,8.37
2018-07-12T01:46:55.321Z,8.00
2018-07-12T01:49:22.495Z,9.50
2018-07-12T01:51:49.502Z,8.43
2018-07-12T01:54:19.494Z,9.07
2018-07-12T01:56:46.572Z,8.93
2018-07-12T01:59:17.998Z,11.63
2018-07-12T02:01:46.063Z,9.10
2018-07-12T02:04:17.633Z,8.63
2018-07-12T02:06:48.563Z,8.10
2018-07-12T02:09:17.466Z,8.50
2018-07-12T02:11:46.240Z,8.23
2018-07-12T02:14:15.107Z,7.90
2018-07-12T02:17:30.462Z,8.33
2018-07-12T02:20:48.406Z,8.43
2018-07-12T02:23:17.372Z,9.10
2018-07-12T02:25:47.799Z,8.30
2018-07-12T02:30:48.761Z,8.50
2018-07-12T02:35:49.002Z,8.50
2018-07-12T02:38:16.114Z,8.50
2018-07-12T02:40:44.315Z,9.10
2018-07-12T02:43:12.684Z,8.20
2018-07-12T02:45:39.172Z,9.10
2018-07-12T02:48:05.654Z,7.87
2018-07-12T02:50:32.143Z,8.73
2018-07-12T02:52:58.601Z,8.07
2018-07-12T02:55:25.617Z,7.67
2018-07-12T02:57:52.117Z,9.27
2018-07-12T03:00:18.585Z,8.30
2018-07-12T03:02:45.039Z,8.97
2018-07-12T03:05:11.497Z,8.70
2018-07-12T03:07:37.986Z,9.60
2018-07-12T03:10:05.799Z,9.03
2018-07-12T03:12:32.264Z,8.77
2018-07-12T03:14:58.762Z,10.13
2018-07-12T03:17:25.264Z,8.17
2018-07-12T03:19:51.739Z,8.50
2018-07-12T03:22:18.278Z,8.20
2018-07-12T03:24:44.754Z,8.87
2018-07-12T03:27:11.224Z,8.43
2018-07-12T03:29:37.736Z,8.50
2018-07-12T03:32:04.194Z,8.43
2018-07-12T03:34:30.682Z,8.27
2018-07-12T03:36:57.196Z,8.70
2018-07-12T03:39:23.698Z,8.63
2018-07-12T03:41:50.210Z,8.07
2018-07-12T03:44:16.668Z,8.67
2018-07-12T03:46:43.655Z,8.63
2018-07-12T03:49:10.175Z,8.50
2018-07-12T03:51:36.647Z,8.40
2018-07-12T03:54:03.128Z,9.10
2018-07-12T03:56:29.654Z,8.60
2018-07-12T03:58:56.149Z,7.97
2018-07-12T04:01:22.686Z,9.53
2018-07-12T04:03:49.182Z,9.25
2018-07-12T04:06:15.633Z,9.85
2018-07-12T04:08:42.119Z,9.70
2018-07-12T04:11:08.654Z,10.32
2018-07-12T04:13:35.200Z,9.10
2018-07-12T04:16:01.695Z,9.80
2018-07-12T04:18:31.311Z,8.73
2018-07-12T04:20:57.831Z,9.03
2018-07-12T04:23:24.322Z,9.00
2018-07-12T04:25:50.811Z,12.00
2018-07-12T04:28:17.287Z,10.00
2018-07-12T04:30:43.841Z,9.83
2018-07-12T04:33:10.368Z,9.75
2018-07-12T04:35:36.844Z,9.10
2018-07-12T04:38:03.308Z,8.98
2018-07-12T04:40:29.823Z,10.32
2018-07-12T04:42:56.307Z,8.98
2018-07-12T04:45:22.808Z,10.13
2018-07-12T04:47:49.305Z,10.28
2018-07-12T04:50:15.807Z,10.25
2018-07-12T04:52:42.283Z,10.58
2018-07-12T04:55:08.784Z,11.80
2018-07-12T04:57:35.279Z,11.10
2018-07-12T05:00:01.811Z,10.60
2018-07-12T05:02:28.759Z,10.60
2018-07-12T05:04:55.262Z,9.70
2018-07-12T05:07:21.827Z,9.20
2018-07-12T05:09:48.374Z,10.33
2018-07-12T05:12:14.860Z,9.70
2018-07-12T05:14:41.340Z,9.80
2018-07-12T05:17:07.865Z,9.60
2018-07-12T05:19:34.406Z,11.13
2018-07-12T05:22:00.990Z,10.20
2018-07-12T05:24:27.422Z,9.97
2018-07-12T05:29:27.501Z,11.43
2018-07-12T05:31:53.997Z,10.03
2018-07-12T05:34:20.503Z,11.20
2018-07-12T05:36:55.576Z,11.90
2018-07-12T05:39:23.292Z,12.93
2018-07-12T05:41:51.099Z,12.28
2018-07-12T05:44:18.686Z,11.07
2018-07-12T05:46:46.516Z,13.63
2018-07-12T05:49:14.275Z,15.90
2018-07-12T05:51:42.013Z,13.80
2018-07-12T05:54:09.687Z,15.17
2018-07-12T05:56:37.347Z,16.40
2018-07-12T05:59:05.748Z,17.50
2018-07-12T06:01:44.651Z,18.90
2018-07-12T06:04:12.224Z,16.80
2018-07-12T06:06:40.095Z,15.17
2018-07-12T06:09:09.540Z,14.50
2018-07-12T06:11:37.136Z,12.57
2018-07-12T06:14:04.735Z,12.87
2018-07-12T06:16:32.521Z,11.33
2018-07-12T06:19:00.240Z,11.47
2018-07-12T06:21:27.823Z,10.03
2018-07-12T06:23:55.475Z,11.90
2018-07-12T06:26:23.056Z,11.00
2018-07-12T06:28:52.124Z,11.50
2018-07-12T06:31:19.821Z,14.97
2018-07-12T06:33:47.438Z,13.07
2018-07-12T06:36:14.985Z,11.93
2018-07-12T06:38:42.664Z,10.23
2018-07-12T06:41:10.235Z,10.60
2018-07-12T06:43:37.828Z,10.03
2018-07-12T06:46:05.489Z,9.47
2018-07-12T06:48:33.066Z,9.23
2018-07-12T06:51:00.696Z,8.10
2018-07-12T06:53:28.355Z,8.73
2018-07-12T06:55:55.951Z,8.83
2018-07-12T06:58:24.063Z,8.53
2018-07-12T07:00:51.715Z,6.90
2018-07-12T07:03:19.666Z,6.83
2018-07-12T07:05:47.357Z,7.83
2018-07-12T07:08:15.405Z,8.70
2018-07-12T07:10:42.974Z,7.20
2018-07-12T07:13:10.596Z,6.57
2018-07-12T07:15:38.192Z,7.30
2018-07-12T07:18:05.757Z,7.13
2018-07-12T07:20:33.416Z,9.97
2018-07-12T07:23:01.042Z,7.27
2018-07-12T07:25:28.637Z,7.60
2018-07-12T07:27:56.301Z,7.50
2018-07-12T07:30:23.961Z,8.20
2018-07-12T07:32:51.622Z,7.60
2018-07-12T07:35:19.210Z,6.70
2018-07-12T07:37:46.800Z,7.23
2018-07-12T07:40:14.444Z,6.77
2018-07-12T07:42:42.048Z,7.33
2018-07-12T07:45:09.718Z,6.00
2018-07-12T07:47:37.343Z,7.13
2018-07-12T07:50:05.245Z,7.30
2018-07-12T07:52:32.880Z,7.37
2018-07-12T07:55:00.399Z,7.43
2018-07-12T07:57:28.012Z,6.93
2018-07-12T07:59:55.650Z,7.03
2018-07-12T08:02:23.392Z,7.63
2018-07-12T08:04:50.994Z,7.63
2018-07-12T08:07:18.728Z,7.10
2018-07-12T08:09:46.392Z,7.30
2018-07-12T08:12:14.031Z,7.53
2018-07-12T08:14:41.828Z,7.30
2018-07-12T08:17:09.475Z,7.70
2018-07-12T08:19:37.041Z,7.30
2018-07-12T08:22:06.933Z,6.57
2018-07-12T08:24:35.217Z,7.03
2018-07-12T08:27:03.277Z,7.00
2018-07-12T08:29:31.637Z,7.93
2018-07-12T08:31:59.616Z,7.37
2018-07-12T08:34:27.405Z,6.43
2018-07-12T08:36:55.172Z,6.10
2018-07-12T08:39:22.882Z,7.90
2018-07-12T08:41:50.609Z,7.20
2018-07-12T08:44:18.271Z,6.30
2018-07-12T08:46:46.040Z,6.77
2018-07-12T08:49:13.771Z,6.53
2018-07-12T08:51:41.442Z,6.33
2018-07-12T08:54:09.117Z,5.97
2018-07-12T08:56:36.718Z,5.87
2018-07-12T08:59:04.416Z,5.63
2018-07-12T09:01:32.048Z,5.97
2018-07-12T09:03:59.627Z,7.30
2018-07-12T09:06:33.852Z,6.40
2018-07-12T09:09:01.511Z,6.53
2018-07-12T09:11:29.943Z,6.00
2018-07-12T09:13:57.576Z,6.53
2018-07-12T09:16:25.094Z,9.17
2018-07-12T09:18:52.733Z,9.37
2018-07-12T09:21:20.399Z,10.10
2018-07-12T09:23:48.044Z,10.77
2018-07-12T09:26:15.671Z,9.13
2018-07-12T09:28:43.251Z,9.40
2018-07-12T09:31:10.844Z,8.80
2018-07-12T09:33:38.474Z,8.50
2018-07-12T09:36:06.117Z,8.60
2018-07-12T09:38:50.606Z,9.40
2018-07-12T09:41:19.052Z,9.50
2018-07-12T09:43:47.329Z,9.17
2018-07-12T09:46:15.180Z,9.13
2018-07-12T09:48:44.157Z,8.93
2018-07-12T09:51:12.544Z,8.37
2018-07-12T09:53:41.452Z,8.30
2018-07-12T09:56:09.200Z,8.80
2018-07-12T09:58:36.725Z,8.17
2018-07-12T10:01:10.038Z,14.97
2018-07-12T10:03:43.200Z,13.20
2018-07-12T10:06:16.356Z,11.90
2018-07-12T10:08:49.533Z,10.80
2018-07-12T10:11:22.777Z,11.00
2018-07-12T10:13:56.209Z,10.97
2018-07-12T10:16:29.508Z,9.70
2018-07-12T10:18:57.179Z,7.90
2018-07-12T10:21:24.830Z,9.13
2018-07-12T10:23:52.439Z,9.10
2018-07-12T10:26:20.105Z,8.60
2018-07-12T10:28:47.696Z,9.33
2018-07-12T10:31:15.355Z,8.07
2018-07-12T10:33:42.987Z,8.57
2018-07-12T10:36:10.593Z,11.13
2018-07-12T10:38:38.238Z,9.93
2018-07-12T10:41:05.964Z,9.63
2018-07-12T10:43:33.454Z,9.77
2018-07-12T10:46:01.071Z,10.20
2018-07-12T10:48:28.783Z,9.93
2018-07-12T10:50:56.439Z,10.87
2018-07-12T10:53:24.141Z,11.77
2018-07-12T10:55:51.824Z,9.23
2018-07-12T10:58:19.547Z,10.53
2018-07-12T11:00:47.168Z,9.23
2018-07-12T11:03:14.785Z,8.93
2018-07-12T11:05:42.413Z,8.53
2018-07-12T11:08:09.997Z,7.63
2018-07-12T11:10:37.727Z,7.37
2018-07-12T11:13:16.295Z,5.97
2018-07-12T11:15:44.809Z,5.47
2018-07-12T11:18:12.406Z,4.93
2018-07-12T11:20:39.998Z,5.50
2018-07-12T11:23:07.702Z,5.40
2018-07-12T11:25:35.396Z,5.17
2018-07-12T11:28:03.483Z,5.53
2018-07-12T11:30:31.076Z,5.50
2018-07-12T11:32:58.526Z,6.10
2018-07-12T11:35:26.099Z,4.83
2018-07-12T11:37:53.710Z,4.77
2018-07-12T11:40:21.311Z,5.10
2018-07-12T11:42:48.965Z,4.73
2018-07-12T11:45:16.622Z,3.70
2018-07-12T11:47:44.309Z,4.63
2018-07-12T11:50:12.009Z,3.70
2018-07-12T11:52:39.681Z,3.60
2018-07-12T11:55:07.330Z,3.43
2018-07-12T11:57:35.611Z,4.00
2018-07-12T12:00:05.020Z,3.47
2018-07-12T12:02:32.561Z,3.43
2018-07-12T12:05:00.206Z,3.80
2018-07-12T12:07:27.765Z,3.63
2018-07-12T12:09:55.430Z,3.83
2018-07-12T12:12:23.084Z,3.50
2018-07-12T12:14:50.727Z,3.30
2018-07-12T12:17:19.729Z,3.63
2018-07-12T12:19:47.362Z,3.10
2018-07-12T12:22:22.451Z,2.97
2018-07-12T12:25:53.003Z,3.00
2018-07-12T12:28:23.842Z,2.60
2018-07-12T12:30:52.153Z,3.30
2018-07-12T12:36:01.281Z,8.10
2018-07-12T12:38:30.980Z,2.50
2018-07-12T12:40:58.838Z,3.07
2018-07-12T12:43:26.454Z,4.33
2018-07-12T12:45:54.088Z,3.87
2018-07-12T12:48:22.057Z,3.30
2018-07-12T12:50:49.723Z,3.33
2018-07-12T12:53:17.300Z,3.10
2018-07-12T12:55:44.931Z,3.13
2018-07-12T12:58:12.592Z,2.40
2018-07-12T13:00:40.203Z,2.80
2018-07-12T13:03:07.811Z,2.90
2018-07-12T13:05:35.749Z,4.30
2018-07-12T13:08:03.465Z,3.17
2018-07-12T13:10:31.049Z,2.53
2018-07-12T13:12:58.661Z,2.80
2018-07-12T13:15:26.259Z,2.67
2018-07-12T13:17:53.884Z,2.37
2018-07-12T13:20:21.482Z,2.57
2018-07-12T13:22:49.072Z,3.07
2018-07-12T13:25:16.627Z,2.63
2018-07-12T13:27:44.271Z,2.90
2018-07-12T13:30:11.870Z,2.17
2018-07-12T13:32:39.550Z,2.63
2018-07-12T13:35:07.240Z,2.63
2018-07-12T13:37:34.849Z,2.73
2018-07-12T13:40:02.539Z,3.10
2018-07-12T13:42:30.156Z,2.43
2018-07-12T13:44:57.779Z,2.63
2018-07-12T13:47:25.384Z,2.83
2018-07-12T13:49:53.006Z,3.10
2018-07-12T13:52:20.583Z,2.50
2018-07-12T13:54:48.213Z,2.80
2018-07-12T13:57:17.563Z,2.87
2018-07-12T13:59:44.376Z,3.27
2018-07-12T14:02:11.993Z,2.47
2018-07-12T14:04:39.625Z,2.23
2018-07-12T14:07:07.196Z,2.80
2018-07-12T14:09:34.801Z,2.73
2018-07-12T14:12:02.533Z,2.37
2018-07-12T14:14:30.153Z,2.70
2018-07-12T14:16:57.753Z,2.50
2018-07-12T14:19:26.290Z,2.90
2018-07-12T14:21:53.840Z,2.57
2018-07-12T14:24:21.433Z,3.10
2018-07-12T14:26:50.084Z,2.63
2018-07-12T14:29:17.680Z,2.63
2018-07-12T14:31:45.258Z,3.20
2018-07-12T14:34:14.234Z,3.30
2018-07-12T14:36:49.260Z,3.03
2018-07-12T14:39:16.999Z,10.83
2018-07-12T14:41:44.612Z,2.97
2018-07-12T14:44:12.223Z,2.77
2018-07-12T14:46:39.853Z,2.80
2018-07-12T14:49:07.554Z,4.50
2018-07-12T14:51:35.227Z,3.40
2018-07-12T14:54:02.899Z,3.63
2018-07-12T14:56:30.510Z,3.23
2018-07-12T14:58:58.085Z,3.00
2018-07-12T15:01:25.725Z,3.10
2018-07-12T15:03:55.221Z,3.77
2018-07-12T15:06:22.824Z,3.60
2018-07-12T15:08:50.427Z,3.33
2018-07-12T15:11:18.048Z,3.63
2018-07-12T15:13:45.676Z,3.73
2018-07-12T15:16:13.396Z,4.40
2018-07-12T15:18:41.038Z,4.83
2018-07-12T15:21:08.692Z,3.47
2018-07-12T15:23:36.424Z,3.23
2018-07-12T15:26:04.227Z,3.17
2018-07-12T15:28:32.115Z,3.50
2018-07-12T15:30:59.790Z,3.67
2018-07-12T15:33:27.428Z,3.63
2018-07-12T15:35:55.132Z,4.37
2018-07-12T15:38:22.760Z,2.97
2018-07-12T15:40:50.328Z,3.97
2018-07-12T15:43:17.938Z,3.40
2018-07-12T15:45:45.600Z,3.40
2018-07-12T15:48:13.218Z,3.40
2018-07-12T15:50:40.829Z,3.40
2018-07-12T15:53:15.108Z,3.63
2018-07-12T15:55:43.054Z,2.77
2018-07-12T15:58:10.817Z,3.03
2018-07-12T16:00:38.495Z,4.10
2018-07-12T16:03:06.102Z,2.87
2018-07-12T16:05:34.010Z,3.10
2018-07-12T16:08:01.636Z,3.37
2018-07-12T16:10:29.974Z,3.13
2018-07-12T16:12:57.617Z,4.77
2018-07-12T16:15:25.283Z,5.00
2018-07-12T16:17:52.891Z,4.03
2018-07-12T16:20:20.507Z,3.20
2018-07-12T16:22:48.094Z,3.57
2018-07-12T16:25:15.756Z,3.20
2018-07-12T16:27:43.393Z,2.90
2018-07-12T16:30:11.913Z,3.17
2018-07-12T16:32:39.571Z,3.70
2018-07-12T16:35:07.162Z,3.30
2018-07-12T16:37:34.798Z,3.57
2018-07-12T16:40:02.461Z,3.10
2018-07-12T16:42:30.061Z,3.10
2018-07-12T16:44:57.688Z,3.27
2018-07-12T16:47:25.298Z,3.33
2018-07-12T16:49:52.880Z,3.63
2018-07-12T16:52:20.507Z,5.03
2018-07-12T16:54:48.191Z,3.40
2018-07-12T16:57:15.767Z,3.70
2018-07-12T16:59:43.366Z,6.13
2018-07-12T17:02:11.739Z,3.43
2018-07-12T17:04:39.365Z,2.80
2018-07-12T17:07:07.068Z,3.73
2018-07-12T17:09:34.678Z,3.73
2018-07-12T17:12:02.339Z,3.43
2018-07-12T17:14:29.929Z,3.93
2018-07-12T17:16:57.662Z,4.30
2018-07-12T17:19:25.305Z,3.53
2018-07-12T17:21:52.936Z,4.07
2018-07-12T17:24:21.094Z,4.40
2018-07-12T17:26:48.707Z,4.30
2018-07-12T17:29:16.283Z,3.67
2018-07-12T17:31:43.931Z,3.63
2018-07-12T17:34:11.590Z,4.23
2018-07-12T17:36:39.168Z,3.37
2018-07-12T17:39:07.328Z,3.40
2018-07-12T17:41:34.927Z,3.50
2018-07-12T17:44:02.598Z,3.30
2018-07-12T17:46:30.228Z,3.57
2018-07-12T17:48:57.893Z,3.57
2018-07-12T17:51:26.763Z,3.67
2018-07-12T17:53:54.427Z,3.50
2018-07-12T17:56:22.636Z,3.63
2018-07-12T17:58:50.256Z,3.90
2018-07-12T18:01:17.873Z,3.50
2018-07-12T18:03:45.972Z,3.53
2018-07-12T18:06:13.663Z,4.20
2018-07-12T18:08:41.399Z,4.10
2018-07-12T18:11:09.107Z,3.43
2018-07-12T18:13:36.687Z,3.97
2018-07-12T18:16:04.519Z,3.77
2018-07-12T18:18:32.141Z,3.50
2018-07-12T18:20:59.746Z,3.90
2018-07-12T18:23:27.443Z,3.43
2018-07-12T18:25:55.182Z,3.93
2018-07-12T18:28:23.470Z,4.50
2018-07-12T18:30:51.214Z,4.30
2018-07-12T18:33:18.912Z,4.10
2018-07-12T18:35:46.665Z,5.83
2018-07-12T18:38:14.351Z,4.30
2018-07-12T18:40:42.825Z,4.80
2018-07-12T18:43:10.581Z,4.50
2018-07-12T18:45:38.813Z,4.40
2018-07-12T18:48:06.485Z,4.60
2018-07-12T18:50:34.167Z,4.47
2018-07-12T18:53:01.900Z,4.33
2018-07-12T18:55:29.480Z,4.63
2018-07-12T18:57:57.497Z,4.30
2018-07-12T19:00:25.185Z,5.63
2018-07-12T19:02:52.856Z,7.33
2018-07-12T19:05:20.548Z,5.20
2018-07-12T19:07:48.242Z,5.13
2018-07-12T19:10:15.888Z,5.10
2018-07-12T19:12:43.540Z,4.60
2018-07-12T19:15:11.236Z,5.23
2018-07-12T19:17:38.848Z,4.83
2018-07-12T19:20:06.496Z,6.10
2018-07-12T19:22:34.196Z,6.13
2018-07-12T19:25:01.875Z,4.97
2018-07-12T19:27:29.504Z,4.93
2018-07-12T19:29:57.176Z,4.77
2018-07-12T19:32:24.848Z,4.67
2018-07-12T19:34:52.636Z,5.40
2018-07-12T19:37:20.282Z,4.80
2018-07-12T19:39:47.958Z,5.13
2018-07-12T19:42:15.608Z,6.07
2018-07-12T19:44:43.268Z,6.57
2018-07-12T19:47:11.293Z,6.63
2018-07-12T19:49:38.947Z,5.40
2018-07-12T19:52:06.460Z,5.37
2018-07-12T19:54:34.116Z,5.60
2018-07-12T19:57:01.782Z,5.67
2018-07-12T19:59:29.385Z,5.50
2018-07-12T20:01:57.009Z,5.97
2018-07-12T20:04:24.637Z,5.60
2018-07-12T20:06:52.294Z,4.93
2018-07-12T20:09:20.063Z,5.53
2018-07-12T20:11:47.796Z,6.37
2018-07-12T20:14:15.585Z,7.13
2018-07-12T20:16:43.260Z,6.87
2018-07-12T20:19:10.940Z,6.03
2018-07-12T20:21:38.591Z,6.37
2018-07-12T20:24:07.233Z,7.77
2018-07-12T20:26:34.945Z,7.13
2018-07-12T20:29:02.823Z,6.77
2018-07-12T20:31:30.588Z,7.30
2018-07-12T20:33:58.192Z,7.17
2018-07-12T20:36:25.835Z,6.83
2018-07-12T20:38:53.822Z,6.63
2018-07-12T20:41:21.451Z,6.20
2018-07-12T20:43:49.356Z,6.20
2018-07-12T20:46:17.070Z,6.03
2018-07-12T20:48:44.835Z,7.37
2018-07-12T20:51:14.362Z,6.50
2018-07-12T20:53:44.362Z,6.20
2018-07-12T20:56:13.161Z,6.30
2018-07-12T20:58:40.844Z,5.53
2018-07-12T21:01:08.475Z,5.67
2018-07-12T21:03:36.124Z,10.33
2018-07-12T21:06:07.835Z,6.77
2018-07-12T21:08:37.048Z,7.07
2018-07-12T21:11:09.479Z,7.03
2018-07-12T21:13:37.252Z,6.57
2018-07-12T21:16:05.533Z,5.90
2018-07-12T21:18:33.157Z,6.57
2018-07-12T21:21:01.301Z,6.40
2018-07-12T21:23:28.977Z,6.27
2018-07-12T21:25:56.637Z,6.50
2018-07-12T21:28:24.319Z,6.50
2018-07-12T21:30:51.976Z,6.40
2018-07-12T21:33:19.823Z,6.13
2018-07-12T21:35:48.064Z,6.67
2018-07-12T21:38:16.734Z,6.57
2018-07-12T21:40:44.393Z,6.40
2018-07-12T21:43:12.019Z,6.60
2018-07-12T21:45:39.633Z,6.57
2018-07-12T21:48:07.296Z,7.03
2018-07-12T21:50:34.906Z,6.50
2018-07-12T21:53:02.586Z,6.17
2018-07-12T21:55:30.230Z,7.17
2018-07-12T21:57:59.956Z,7.13
2018-07-12T22:00:27.688Z,6.60
2018-07-12T22:02:56.327Z,6.53
2018-07-12T22:05:25.183Z,6.47
2018-07-12T22:08:08.983Z,7.47
2018-07-12T22:10:37.182Z,7.10
2018-07-12T22:13:04.778Z,7.57
2018-07-12T22:15:32.581Z,6.80
2018-07-12T22:18:00.342Z,7.40
2018-07-12T22:20:29.238Z,6.90
2018-07-12T22:22:57.803Z,6.10
2018-07-12T22:25:26.434Z,6.80
2018-07-12T22:27:55.440Z,7.40
2018-07-12T22:30:25.055Z,7.87
2018-07-12T22:32:53.609Z,6.50
2018-07-12T22:35:21.265Z,6.93
2018-07-12T22:37:49.648Z,7.10
2018-07-12T22:40:19.376Z,8.47
2018-07-12T22:42:47.690Z,6.93
2018-07-12T22:45:15.989Z,7.00
2018-07-12T22:47:43.596Z,7.63
2018-07-12T22:50:11.268Z,7.43
2018-07-12T22:52:45.930Z,8.30
2018-07-12T22:55:24.253Z,8.00
2018-07-12T22:57:54.870Z,8.47
2018-07-12T23:00:22.503Z,7.97
2018-07-12T23:02:51.791Z,7.70
2018-07-12T23:05:20.224Z,7.20
2018-07-12T23:07:49.084Z,7.13
2018-07-12T23:10:17.692Z,7.87
2018-07-12T23:12:46.524Z,7.60
2018-07-12T23:15:14.900Z,7.00
2018-07-12T23:17:43.110Z,8.00
2018-07-12T23:20:12.178Z,7.60
2018-07-12T23:22:40.316Z,7.83
2018-07-12T23:25:07.937Z,7.90
2018-07-12T23:27:37.350Z,8.20
2018-07-12T23:30:05.013Z,7.77
2018-07-12T23:32:32.644Z,7.93
2018-07-12T23:35:00.290Z,8.50
2018-07-12T23:37:27.929Z,7.33
2018-07-12T23:39:55.512Z,7.27
2018-07-12T23:42:23.165Z,7.50
2018-07-12T23:44:50.798Z,7.10
2018-07-12T23:47:18.425Z,7.20
2018-07-12T23:49:45.921Z,7.23
2018-07-12T23:52:13.524Z,7.60
2018-07-12T23:54:41.168Z,7.77
2018-07-12T23:57:08.807Z,8.17
2018-07-12T23:59:36.427Z,7.23
